sensor_id;sensor_type;location;lat;lon;timestamp;pressure;altitude;pressure_sealevel;temperature;humidity
5522;BME280;2783;48.730;8.006;2023-03-31T00:01:23;99467.03;;;14.89;73.84
5522;BME280;2783;48.730;8.006;2023-03-31T00:03:48;99459.94;;;14.88;74.42
5522;BME280;2783;48.730;8.006;2023-03-31T00:06:13;99455.09;;;14.94;73.96
5522;BME280;2783;48.730;8.006;2023-03-31T00:08:43;99453.88;;;15.00;73.03
5522;BME280;2783;48.730;8.006;2023-03-31T00:11:09;99454.75;;;15.00;74.54
5522;BME280;2783;48.730;8.006;2023-03-31T00:13:36;99451.88;;;15.03;74.29
5522;BME280;2783;48.730;8.006;2023-03-31T00:16:02;99434.00;;;15.04;71.40
5522;BME280;2783;48.730;8.006;2023-03-31T00:18:28;99432.75;;;15.09;71.31
5522;BME280;2783;48.730;8.006;2023-03-31T00:20:54;99435.09;;;15.15;69.34
5522;BME280;2783;48.730;8.006;2023-03-31T00:23:21;99439.69;;;15.27;68.24
5522;BME280;2783;48.730;8.006;2023-03-31T00:25:51;99434.91;;;15.32;68.33
5522;BME280;2783;48.730;8.006;2023-03-31T00:28:17;99438.75;;;15.28;68.98
5522;BME280;2783;48.730;8.006;2023-03-31T00:30:42;99438.06;;;15.25;69.41
5522;BME280;2783;48.730;8.006;2023-03-31T00:33:07;99432.03;;;15.21;70.06
5522;BME280;2783;48.730;8.006;2023-03-31T00:35:34;99440.94;;;15.22;71.67
5522;BME280;2783;48.730;8.006;2023-03-31T00:38:03;99428.56;;;15.19;72.20
5522;BME280;2783;48.730;8.006;2023-03-31T00:40:30;99441.66;;;15.10;72.76
5522;BME280;2783;48.730;8.006;2023-03-31T00:42:55;99441.94;;;15.05;71.61
5522;BME280;2783;48.730;8.006;2023-03-31T00:45:22;99429.69;;;15.01;72.53
5522;BME280;2783;48.730;8.006;2023-03-31T00:47:49;99429.78;;;15.00;72.23
5522;BME280;2783;48.730;8.006;2023-03-31T00:50:18;99429.09;;;14.96;71.91
5522;BME280;2783;48.730;8.006;2023-03-31T00:52:44;99432.25;;;15.03;70.81
5522;BME280;2783;48.730;8.006;2023-03-31T00:55:16;99431.91;;;15.09;70.48
5522;BME280;2783;48.730;8.006;2023-03-31T00:57:43;99454.38;;;15.06;71.20
5522;BME280;2783;48.730;8.006;2023-03-31T01:00:12;99455.34;;;15.05;73.34
5522;BME280;2783;48.730;8.006;2023-03-31T01:02:43;99469.72;;;14.89;74.64
5522;BME280;2783;48.730;8.006;2023-03-31T01:05:17;99452.97;;;14.85;76.74
5522;BME280;2783;48.730;8.006;2023-03-31T01:07:43;99444.63;;;14.76;80.02
5522;BME280;2783;48.730;8.006;2023-03-31T01:10:10;99438.06;;;14.66;81.09
5522;BME280;2783;48.730;8.006;2023-03-31T01:12:36;99436.38;;;14.49;83.44
5522;BME280;2783;48.730;8.006;2023-03-31T01:15:02;99432.50;;;14.39;85.08
5522;BME280;2783;48.730;8.006;2023-03-31T01:17:28;99423.78;;;14.35;85.73
5522;BME280;2783;48.730;8.006;2023-03-31T01:27:45;99405.28;;;14.15;87.82
5522;BME280;2783;48.730;8.006;2023-03-31T01:30:23;99400.13;;;14.12;87.94
5522;BME280;2783;48.730;8.006;2023-03-31T01:43:59;99351.81;;;14.00;89.49
5522;BME280;2783;48.730;8.006;2023-03-31T01:53:53;99333.03;;;13.86;90.44
5522;BME280;2783;48.730;8.006;2023-03-31T01:56:30;99320.88;;;13.80;90.71
5522;BME280;2783;48.730;8.006;2023-03-31T02:01:24;99299.72;;;13.76;91.25
5522;BME280;2783;48.730;8.006;2023-03-31T02:04:01;99289.59;;;13.67;91.55
5522;BME280;2783;48.730;8.006;2023-03-31T02:06:29;99270.78;;;13.68;91.29
5522;BME280;2783;48.730;8.006;2023-03-31T02:08:58;99250.28;;;13.69;91.72
5522;BME280;2783;48.730;8.006;2023-03-31T02:11:25;99245.63;;;13.57;92.47
5522;BME280;2783;48.730;8.006;2023-03-31T02:13:53;99229.22;;;13.63;91.65
5522;BME280;2783;48.730;8.006;2023-03-31T02:16:20;99216.81;;;13.62;91.92
5522;BME280;2783;48.730;8.006;2023-03-31T02:18:48;99217.59;;;13.64;91.82
5522;BME280;2783;48.730;8.006;2023-03-31T02:21:17;99197.34;;;13.75;91.46
5522;BME280;2783;48.730;8.006;2023-03-31T02:23:43;99194.81;;;13.72;90.86
5522;BME280;2783;48.730;8.006;2023-03-31T02:26:13;99193.19;;;13.70;90.20
5522;BME280;2783;48.730;8.006;2023-03-31T02:28:40;99185.78;;;13.75;89.42
5522;BME280;2783;48.730;8.006;2023-03-31T02:33:30;99178.22;;;13.67;89.54
5522;BME280;2783;48.730;8.006;2023-03-31T02:35:56;99165.00;;;13.64;89.66
5522;BME280;2783;48.730;8.006;2023-03-31T02:38:22;99167.53;;;13.67;89.85
5522;BME280;2783;48.730;8.006;2023-03-31T02:40:47;99144.59;;;13.63;89.78
5522;BME280;2783;48.730;8.006;2023-03-31T02:43:13;99132.44;;;13.58;89.56
5522;BME280;2783;48.730;8.006;2023-03-31T02:48:04;99113.03;;;13.54;89.89
5522;BME280;2783;48.730;8.006;2023-03-31T02:50:38;99098.25;;;13.49;90.16
5522;BME280;2783;48.730;8.006;2023-03-31T02:53:12;99088.44;;;13.49;89.65
5522;BME280;2783;48.730;8.006;2023-03-31T02:55:46;99069.81;;;13.48;89.38
5522;BME280;2783;48.730;8.006;2023-03-31T02:58:25;99066.38;;;13.46;88.68
5522;BME280;2783;48.730;8.006;2023-03-31T03:18:37;98992.63;;;13.43;88.21
5522;BME280;2783;48.730;8.006;2023-03-31T03:21:03;98964.50;;;13.38;88.19
5522;BME280;2783;48.730;8.006;2023-03-31T03:23:28;98929.00;;;13.36;87.20
5522;BME280;2783;48.730;8.006;2023-03-31T03:25:53;98926.31;;;13.36;86.90
5522;BME280;2783;48.730;8.006;2023-03-31T03:28:19;98891.22;;;13.28;86.72
5522;BME280;2783;48.730;8.006;2023-03-31T03:30:45;98883.56;;;13.21;86.04
5522;BME280;2783;48.730;8.006;2023-03-31T03:33:10;98888.31;;;13.16;86.82
5522;BME280;2783;48.730;8.006;2023-03-31T03:35:41;98910.75;;;13.14;86.51
5522;BME280;2783;48.730;8.006;2023-03-31T03:38:06;98917.25;;;13.24;86.86
5522;BME280;2783;48.730;8.006;2023-03-31T03:40:31;98920.69;;;13.26;86.79
5522;BME280;2783;48.730;8.006;2023-03-31T03:42:56;98926.03;;;13.26;87.55
5522;BME280;2783;48.730;8.006;2023-03-31T03:45:22;98926.66;;;13.30;88.00
5522;BME280;2783;48.730;8.006;2023-03-31T03:47:47;98927.63;;;13.29;87.52
5522;BME280;2783;48.730;8.006;2023-03-31T03:50:12;98949.78;;;13.31;87.58
5522;BME280;2783;48.730;8.006;2023-03-31T03:52:38;98949.38;;;13.37;86.05
5522;BME280;2783;48.730;8.006;2023-03-31T03:55:03;98954.19;;;13.46;86.11
5522;BME280;2783;48.730;8.006;2023-03-31T03:57:29;98952.44;;;13.45;86.54
5522;BME280;2783;48.730;8.006;2023-03-31T03:59:54;98954.19;;;13.46;87.45
5522;BME280;2783;48.730;8.006;2023-03-31T04:02:20;98953.41;;;13.44;87.82
5522;BME280;2783;48.730;8.006;2023-03-31T04:04:45;98946.44;;;13.41;88.54
5522;BME280;2783;48.730;8.006;2023-03-31T04:07:11;98939.28;;;13.42;89.10
5522;BME280;2783;48.730;8.006;2023-03-31T04:09:37;98945.59;;;13.41;89.33
5522;BME280;2783;48.730;8.006;2023-03-31T04:12:02;98941.78;;;13.45;89.38
5522;BME280;2783;48.730;8.006;2023-03-31T04:14:27;98925.75;;;13.45;89.89
5522;BME280;2783;48.730;8.006;2023-03-31T04:16:53;98924.03;;;13.44;90.36
5522;BME280;2783;48.730;8.006;2023-03-31T04:19:20;98911.44;;;13.46;91.28
5522;BME280;2783;48.730;8.006;2023-03-31T04:21:45;98906.47;;;13.40;92.06
5522;BME280;2783;48.730;8.006;2023-03-31T04:24:14;98911.63;;;13.43;92.04
5522;BME280;2783;48.730;8.006;2023-03-31T04:26:45;98917.06;;;13.41;93.05
5522;BME280;2783;48.730;8.006;2023-03-31T04:29:11;98909.91;;;13.42;93.51
5522;BME280;2783;48.730;8.006;2023-03-31T04:31:37;98923.47;;;13.39;94.79
5522;BME280;2783;48.730;8.006;2023-03-31T04:34:06;98956.53;;;13.36;94.27
5522;BME280;2783;48.730;8.006;2023-03-31T04:36:37;98972.84;;;13.32;95.93
5522;BME280;2783;48.730;8.006;2023-03-31T04:39:06;98969.41;;;13.30;96.64
5522;BME280;2783;48.730;8.006;2023-03-31T04:41:34;98973.31;;;13.24;96.73
5522;BME280;2783;48.730;8.006;2023-03-31T04:44:00;98976.81;;;13.24;98.02
5522;BME280;2783;48.730;8.006;2023-03-31T04:46:25;98963.41;;;13.26;98.83
5522;BME280;2783;48.730;8.006;2023-03-31T04:48:51;98969.78;;;13.23;99.71
5522;BME280;2783;48.730;8.006;2023-03-31T04:51:17;98941.38;;;13.23;100.00
5522;BME280;2783;48.730;8.006;2023-03-31T04:53:44;98919.81;;;13.26;100.00
5522;BME280;2783;48.730;8.006;2023-03-31T04:56:09;98908.06;;;13.28;100.00
5522;BME280;2783;48.730;8.006;2023-03-31T04:58:35;98889.88;;;13.20;100.00
5522;BME280;2783;48.730;8.006;2023-03-31T05:01:00;98900.53;;;13.20;100.00
5522;BME280;2783;48.730;8.006;2023-03-31T05:03:25;98908.75;;;13.17;100.00
5522;BME280;2783;48.730;8.006;2023-03-31T05:05:51;98919.69;;;13.13;100.00
5522;BME280;2783;48.730;8.006;2023-03-31T05:08:16;98932.44;;;13.08;100.00
5522;BME280;2783;48.730;8.006;2023-03-31T05:10:41;98933.84;;;12.99;100.00
5522;BME280;2783;48.730;8.006;2023-03-31T05:13:08;98931.50;;;12.93;100.00
5522;BME280;2783;48.730;8.006;2023-03-31T05:15:36;98916.09;;;12.98;100.00
5522;BME280;2783;48.730;8.006;2023-03-31T05:18:01;98907.16;;;12.99;100.00
5522;BME280;2783;48.730;8.006;2023-03-31T05:20:26;98894.56;;;13.01;100.00
5522;BME280;2783;48.730;8.006;2023-03-31T05:22:52;98880.31;;;13.02;100.00
5522;BME280;2783;48.730;8.006;2023-03-31T05:25:17;98880.31;;;13.02;100.00
5522;BME280;2783;48.730;8.006;2023-03-31T05:27:43;98880.47;;;12.99;100.00
5522;BME280;2783;48.730;8.006;2023-03-31T05:30:09;98885.97;;;12.96;100.00
5522;BME280;2783;48.730;8.006;2023-03-31T05:32:34;98892.94;;;12.99;100.00
5522;BME280;2783;48.730;8.006;2023-03-31T05:35:00;98903.47;;;13.02;100.00
5522;BME280;2783;48.730;8.006;2023-03-31T05:37:25;98900.69;;;13.03;100.00
5522;BME280;2783;48.730;8.006;2023-03-31T05:39:51;98890.97;;;13.02;100.00
5522;BME280;2783;48.730;8.006;2023-03-31T05:42:16;98884.06;;;12.98;100.00
5522;BME280;2783;48.730;8.006;2023-03-31T05:44:41;98875.91;;;13.01;100.00
5522;BME280;2783;48.730;8.006;2023-03-31T05:47:07;98864.97;;;12.90;100.00
5522;BME280;2783;48.730;8.006;2023-03-31T05:49:32;98874.31;;;12.83;100.00
5522;BME280;2783;48.730;8.006;2023-03-31T05:51:57;98878.31;;;12.76;100.00
5522;BME280;2783;48.730;8.006;2023-03-31T05:54:23;98891.66;;;12.76;100.00
5522;BME280;2783;48.730;8.006;2023-03-31T05:56:48;98874.19;;;12.71;100.00
5522;BME280;2783;48.730;8.006;2023-03-31T05:59:13;98857.09;;;12.59;100.00
5522;BME280;2783;48.730;8.006;2023-03-31T06:01:39;98861.66;;;12.57;100.00
5522;BME280;2783;48.730;8.006;2023-03-31T06:04:04;98856.88;;;12.48;100.00
5522;BME280;2783;48.730;8.006;2023-03-31T06:06:29;98860.66;;;12.44;100.00
5522;BME280;2783;48.730;8.006;2023-03-31T06:08:57;98843.88;;;12.42;100.00
5522;BME280;2783;48.730;8.006;2023-03-31T06:11:22;98845.16;;;12.51;100.00
5522;BME280;2783;48.730;8.006;2023-03-31T06:13:48;98854.78;;;12.53;100.00
5522;BME280;2783;48.730;8.006;2023-03-31T06:16:14;98853.06;;;12.52;100.00
5522;BME280;2783;48.730;8.006;2023-03-31T06:18:39;98843.94;;;12.56;100.00
5522;BME280;2783;48.730;8.006;2023-03-31T06:21:05;98844.81;;;12.57;100.00
5522;BME280;2783;48.730;8.006;2023-03-31T06:23:30;98845.31;;;12.63;100.00
5522;BME280;2783;48.730;8.006;2023-03-31T06:26:03;98849.69;;;12.64;100.00
5522;BME280;2783;48.730;8.006;2023-03-31T06:28:28;98841.88;;;12.75;100.00
5522;BME280;2783;48.730;8.006;2023-03-31T06:31:01;98834.75;;;12.76;100.00
5522;BME280;2783;48.730;8.006;2023-03-31T06:33:26;98751.94;;;12.77;100.00
5522;BME280;2783;48.730;8.006;2023-03-31T06:35:54;98752.59;;;12.81;100.00
5522;BME280;2783;48.730;8.006;2023-03-31T06:38:19;98813.13;;;12.80;100.00
5522;BME280;2783;48.730;8.006;2023-03-31T06:40:44;98824.19;;;12.88;100.00
5522;BME280;2783;48.730;8.006;2023-03-31T06:43:09;98818.84;;;12.88;100.00
5522;BME280;2783;48.730;8.006;2023-03-31T06:45:35;98808.34;;;12.85;100.00
5522;BME280;2783;48.730;8.006;2023-03-31T06:48:01;98799.81;;;12.94;100.00
5522;BME280;2783;48.730;8.006;2023-03-31T06:50:26;98797.03;;;12.96;100.00
5522;BME280;2783;48.730;8.006;2023-03-31T06:52:51;98811.91;;;13.00;100.00
5522;BME280;2783;48.730;8.006;2023-03-31T06:55:19;98831.28;;;13.03;100.00
5522;BME280;2783;48.730;8.006;2023-03-31T06:57:44;98835.03;;;13.01;100.00
5522;BME280;2783;48.730;8.006;2023-03-31T07:00:09;98842.53;;;13.08;100.00
5522;BME280;2783;48.730;8.006;2023-03-31T07:02:35;98837.97;;;13.10;100.00
5522;BME280;2783;48.730;8.006;2023-03-31T07:05:01;98841.63;;;13.09;100.00
5522;BME280;2783;48.730;8.006;2023-03-31T07:07:26;98843.31;;;13.10;100.00
5522;BME280;2783;48.730;8.006;2023-03-31T07:09:51;98848.16;;;13.18;100.00
5522;BME280;2783;48.730;8.006;2023-03-31T07:12:16;98844.38;;;13.22;100.00
5522;BME280;2783;48.730;8.006;2023-03-31T07:14:42;98845.34;;;13.21;99.83
5522;BME280;2783;48.730;8.006;2023-03-31T07:17:07;98850.75;;;13.34;100.00
5522;BME280;2783;48.730;8.006;2023-03-31T07:19:32;98844.47;;;13.35;98.85
5522;BME280;2783;48.730;8.006;2023-03-31T07:22:01;98852.22;;;13.39;98.33
5522;BME280;2783;48.730;8.006;2023-03-31T07:24:27;98854.38;;;13.47;97.62
5522;BME280;2783;48.730;8.006;2023-03-31T07:26:52;98857.63;;;13.52;97.49
5522;BME280;2783;48.730;8.006;2023-03-31T07:29:17;98858.97;;;13.59;97.31
5522;BME280;2783;48.730;8.006;2023-03-31T07:31:45;98851.88;;;13.72;96.86
5522;BME280;2783;48.730;8.006;2023-03-31T07:34:11;98853.75;;;13.84;96.31
5522;BME280;2783;48.730;8.006;2023-03-31T07:36:36;98849.06;;;13.87;94.90
5522;BME280;2783;48.730;8.006;2023-03-31T07:39:01;98852.59;;;14.02;94.41
5522;BME280;2783;48.730;8.006;2023-03-31T07:41:27;98859.91;;;14.12;94.44
5522;BME280;2783;48.730;8.006;2023-03-31T07:43:52;98849.34;;;14.37;94.31
5522;BME280;2783;48.730;8.006;2023-03-31T07:46:19;98844.25;;;14.60;92.41
5522;BME280;2783;48.730;8.006;2023-03-31T07:48:44;98846.66;;;14.64;91.48
5522;BME280;2783;48.730;8.006;2023-03-31T07:51:11;98848.13;;;14.56;91.76
5522;BME280;2783;48.730;8.006;2023-03-31T07:53:36;98842.31;;;14.49;91.45
5522;BME280;2783;48.730;8.006;2023-03-31T07:56:01;98838.47;;;14.53;91.51
5522;BME280;2783;48.730;8.006;2023-03-31T07:58:27;98838.47;;;14.53;91.56
5522;BME280;2783;48.730;8.006;2023-03-31T08:00:53;98833.75;;;14.57;90.86
5522;BME280;2783;48.730;8.006;2023-03-31T08:03:18;98837.41;;;14.56;89.92
5522;BME280;2783;48.730;8.006;2023-03-31T08:05:43;98835.72;;;14.67;88.79
5522;BME280;2783;48.730;8.006;2023-03-31T08:08:08;98842.38;;;14.74;87.74
5522;BME280;2783;48.730;8.006;2023-03-31T08:10:34;98845.06;;;14.74;87.91
5522;BME280;2783;48.730;8.006;2023-03-31T08:12:59;98841.75;;;14.83;87.22
5522;BME280;2783;48.730;8.006;2023-03-31T08:15:24;98835.56;;;14.95;85.79
5522;BME280;2783;48.730;8.006;2023-03-31T08:17:50;98842.84;;;15.06;87.05
5522;BME280;2783;48.730;8.006;2023-03-31T08:20:15;98838.25;;;14.95;84.90
5522;BME280;2783;48.730;8.006;2023-03-31T08:22:40;98846.72;;;15.02;85.41
5522;BME280;2783;48.730;8.006;2023-03-31T08:25:06;98847.34;;;15.05;86.14
5522;BME280;2783;48.730;8.006;2023-03-31T08:27:35;98832.13;;;14.93;84.31
5522;BME280;2783;48.730;8.006;2023-03-31T08:30:01;98849.38;;;15.14;83.89
5522;BME280;2783;48.730;8.006;2023-03-31T08:32:29;98842.41;;;15.74;80.93
5522;BME280;2783;48.730;8.006;2023-03-31T08:34:54;98832.69;;;16.57;76.78
5522;BME280;2783;48.730;8.006;2023-03-31T08:37:20;98833.56;;;17.03;74.35
5522;BME280;2783;48.730;8.006;2023-03-31T08:39:45;98833.88;;;17.66;70.38
5522;BME280;2783;48.730;8.006;2023-03-31T08:42:19;98829.28;;;18.22;69.16
5522;BME280;2783;48.730;8.006;2023-03-31T08:44:54;98835.09;;;17.95;67.59
5522;BME280;2783;48.730;8.006;2023-03-31T08:47:22;98838.66;;;17.52;68.86
5522;BME280;2783;48.730;8.006;2023-03-31T08:49:51;98832.38;;;17.29;71.84
5522;BME280;2783;48.730;8.006;2023-03-31T08:52:20;98822.06;;;17.01;70.61
5522;BME280;2783;48.730;8.006;2023-03-31T08:54:51;98835.16;;;16.71;72.34
5522;BME280;2783;48.730;8.006;2023-03-31T08:57:43;98835.28;;;16.46;72.52
5522;BME280;2783;48.730;8.006;2023-03-31T09:00:09;98828.41;;;16.18;74.18
5522;BME280;2783;48.730;8.006;2023-03-31T09:05:30;98815.72;;;15.97;76.04
5522;BME280;2783;48.730;8.006;2023-03-31T09:08:05;98816.25;;;15.78;74.68
5522;BME280;2783;48.730;8.006;2023-03-31T09:15:43;98814.28;;;15.80;75.96
5522;BME280;2783;48.730;8.006;2023-03-31T09:18:24;98817.06;;;15.78;76.73
5522;BME280;2783;48.730;8.006;2023-03-31T09:20:51;98817.41;;;15.74;77.05
5522;BME280;2783;48.730;8.006;2023-03-31T09:25:42;98812.69;;;15.65;77.35
5522;BME280;2783;48.730;8.006;2023-03-31T09:28:13;98807.25;;;15.66;75.91
5522;BME280;2783;48.730;8.006;2023-03-31T09:30:42;98800.41;;;15.62;76.64
5522;BME280;2783;48.730;8.006;2023-03-31T09:33:15;98800.63;;;15.59;78.31
5522;BME280;2783;48.730;8.006;2023-03-31T09:35:41;98783.25;;;15.27;77.23
5522;BME280;2783;48.730;8.006;2023-03-31T09:38:08;98784.16;;;15.15;79.59
5522;BME280;2783;48.730;8.006;2023-03-31T09:40:34;98770.53;;;15.18;79.55
5522;BME280;2783;48.730;8.006;2023-03-31T09:43:01;98763.97;;;15.22;77.29
5522;BME280;2783;48.730;8.006;2023-03-31T09:45:28;98753.16;;;15.36;77.29
5522;BME280;2783;48.730;8.006;2023-03-31T09:47:55;98746.94;;;15.48;76.73
5522;BME280;2783;48.730;8.006;2023-03-31T09:50:22;98749.28;;;15.76;76.19
5522;BME280;2783;48.730;8.006;2023-03-31T09:55:17;98746.88;;;16.21;74.47
5522;BME280;2783;48.730;8.006;2023-03-31T09:57:44;98745.66;;;16.48;74.18
5522;BME280;2783;48.730;8.006;2023-03-31T10:10:33;98738.38;;;16.38;65.19
5522;BME280;2783;48.730;8.006;2023-03-31T10:12:58;98729.69;;;16.34;66.63
5522;BME280;2783;48.730;8.006;2023-03-31T10:15:27;98746.88;;;16.21;66.08
5522;BME280;2783;48.730;8.006;2023-03-31T10:17:52;98749.66;;;15.96;68.25
5522;BME280;2783;48.730;8.006;2023-03-31T10:20:26;98801.81;;;15.30;67.66
5522;BME280;2783;48.730;8.006;2023-03-31T10:22:54;98808.31;;;14.51;74.05
5522;BME280;2783;48.730;8.006;2023-03-31T10:25:21;98860.88;;;14.11;80.38
5522;BME280;2783;48.730;8.006;2023-03-31T10:27:48;98865.44;;;13.69;87.08
5522;BME280;2783;48.730;8.006;2023-03-31T10:30:23;98861.06;;;13.40;89.57
5522;BME280;2783;48.730;8.006;2023-03-31T10:32:48;98867.53;;;13.21;92.43
5522;BME280;2783;48.730;8.006;2023-03-31T10:37:48;98878.03;;;12.95;96.61
5522;BME280;2783;48.730;8.006;2023-03-31T10:40:18;98884.03;;;12.84;96.92
5522;BME280;2783;48.730;8.006;2023-03-31T10:42:45;98889.31;;;12.70;96.52
5522;BME280;2783;48.730;8.006;2023-03-31T10:47:42;98829.72;;;12.42;95.29
5522;BME280;2783;48.730;8.006;2023-03-31T10:50:13;98848.97;;;12.47;95.12
5522;BME280;2783;48.730;8.006;2023-03-31T10:52:43;98850.34;;;12.38;92.52
5522;BME280;2783;48.730;8.006;2023-03-31T10:55:23;98858.94;;;12.43;92.86
5522;BME280;2783;48.730;8.006;2023-03-31T11:23:37;98825.69;;;14.71;79.41
5522;BME280;2783;48.730;8.006;2023-03-31T11:28:36;98789.47;;;14.65;77.28
5522;BME280;2783;48.730;8.006;2023-03-31T11:31:26;98791.63;;;14.73;77.54
5522;BME280;2783;48.730;8.006;2023-03-31T11:33:58;98799.97;;;14.68;74.76
5522;BME280;2783;48.730;8.006;2023-03-31T11:41:42;98791.91;;;14.43;78.61
5522;BME280;2783;48.730;8.006;2023-03-31T11:44:10;98790.66;;;14.61;78.95
5522;BME280;2783;48.730;8.006;2023-03-31T11:46:41;98791.16;;;14.53;78.29
5522;BME280;2783;48.730;8.006;2023-03-31T11:49:22;98790.44;;;14.64;79.21
5522;BME280;2783;48.730;8.006;2023-03-31T11:54:19;98790.13;;;14.81;78.00
5522;BME280;2783;48.730;8.006;2023-03-31T11:56:48;98785.75;;;14.80;78.21
5522;BME280;2783;48.730;8.006;2023-03-31T11:59:14;98775.56;;;14.85;73.91
5522;BME280;2783;48.730;8.006;2023-03-31T12:01:47;98764.88;;;15.10;76.22
5522;BME280;2783;48.730;8.006;2023-03-31T12:06:52;98756.38;;;15.41;69.84
5522;BME280;2783;48.730;8.006;2023-03-31T12:09:34;98773.44;;;15.15;71.15
5522;BME280;2783;48.730;8.006;2023-03-31T12:12:06;98788.31;;;15.07;75.88
5522;BME280;2783;48.730;8.006;2023-03-31T12:14:36;98784.34;;;14.62;79.36
5522;BME280;2783;48.730;8.006;2023-03-31T12:17:17;98792.63;;;14.32;81.77
5522;BME280;2783;48.730;8.006;2023-03-31T12:19:47;98817.56;;;13.92;82.55
5522;BME280;2783;48.730;8.006;2023-03-31T12:22:15;98813.59;;;13.71;86.08
5522;BME280;2783;48.730;8.006;2023-03-31T12:24:41;98785.66;;;13.63;88.35
5522;BME280;2783;48.730;8.006;2023-03-31T12:27:10;98750.25;;;13.33;88.97
5522;BME280;2783;48.730;8.006;2023-03-31T12:32:04;98758.75;;;13.11;91.09
5522;BME280;2783;48.730;8.006;2023-03-31T12:34:31;98747.97;;;13.12;91.45
5522;BME280;2783;48.730;8.006;2023-03-31T12:44:55;98732.44;;;13.60;90.40
5522;BME280;2783;48.730;8.006;2023-03-31T12:50:04;98713.28;;;13.80;88.00
5522;BME280;2783;48.730;8.006;2023-03-31T12:55:31;98703.19;;;13.71;86.00
5522;BME280;2783;48.730;8.006;2023-03-31T13:03:36;98686.59;;;13.66;83.72
5522;BME280;2783;48.730;8.006;2023-03-31T13:06:02;98681.63;;;13.74;83.20
5522;BME280;2783;48.730;8.006;2023-03-31T13:08:48;98681.34;;;13.91;83.89
5522;BME280;2783;48.730;8.006;2023-03-31T13:11:13;98681.50;;;14.02;83.40
5522;BME280;2783;48.730;8.006;2023-03-31T13:13:44;98682.00;;;14.07;80.05
5522;BME280;2783;48.730;8.006;2023-03-31T13:16:09;98681.41;;;14.16;78.80
5522;BME280;2783;48.730;8.006;2023-03-31T13:18:35;98684.53;;;14.35;78.74
5522;BME280;2783;48.730;8.006;2023-03-31T13:21:01;98696.31;;;14.45;77.06
5522;BME280;2783;48.730;8.006;2023-03-31T13:23:29;98697.50;;;14.53;76.75
5522;BME280;2783;48.730;8.006;2023-03-31T13:25:58;98699.56;;;14.63;76.40
5522;BME280;2783;48.730;8.006;2023-03-31T13:28:30;98696.84;;;15.00;76.07
5522;BME280;2783;48.730;8.006;2023-03-31T13:33:31;98692.06;;;15.65;71.82
5522;BME280;2783;48.730;8.006;2023-03-31T13:36:18;98686.66;;;15.54;75.04
5522;BME280;2783;48.730;8.006;2023-03-31T13:44:19;98686.59;;;15.43;75.94
5522;BME280;2783;48.730;8.006;2023-03-31T13:52:18;98664.59;;;15.98;71.63
5522;BME280;2783;48.730;8.006;2023-03-31T13:55:00;98671.63;;;15.88;72.92
5522;BME280;2783;48.730;8.006;2023-03-31T14:00:02;98651.41;;;15.11;76.08
5522;BME280;2783;48.730;8.006;2023-03-31T14:08:11;98648.25;;;15.17;71.46
5522;BME280;2783;48.730;8.006;2023-03-31T14:10:39;98645.44;;;15.31;72.78
5522;BME280;2783;48.730;8.006;2023-03-31T14:15:35;98643.84;;;15.29;72.10
5522;BME280;2783;48.730;8.006;2023-03-31T14:18:02;98632.28;;;15.28;71.97
5522;BME280;2783;48.730;8.006;2023-03-31T14:20:48;98628.41;;;15.32;72.41
5522;BME280;2783;48.730;8.006;2023-03-31T14:23:34;98624.25;;;15.28;72.55
5522;BME280;2783;48.730;8.006;2023-03-31T14:36:35;98609.31;;;15.13;77.16
5522;BME280;2783;48.730;8.006;2023-03-31T14:39:04;98606.03;;;15.21;76.45
5522;BME280;2783;48.730;8.006;2023-03-31T14:41:30;98604.69;;;15.15;76.23
5522;BME280;2783;48.730;8.006;2023-03-31T14:43:56;98612.50;;;15.18;78.12
5522;BME280;2783;48.730;8.006;2023-03-31T14:46:24;98603.47;;;15.19;78.33
5522;BME280;2783;48.730;8.006;2023-03-31T14:48:50;98597.88;;;15.22;78.87
5522;BME280;2783;48.730;8.006;2023-03-31T14:51:18;98595.72;;;15.27;80.05
5522;BME280;2783;48.730;8.006;2023-03-31T14:53:47;98601.09;;;15.27;77.45
5522;BME280;2783;48.730;8.006;2023-03-31T14:56:20;98605.38;;;15.30;75.04
5522;BME280;2783;48.730;8.006;2023-03-31T14:58:50;98603.53;;;15.43;75.32
5522;BME280;2783;48.730;8.006;2023-03-31T15:01:18;98601.28;;;15.37;72.62
5522;BME280;2783;48.730;8.006;2023-03-31T15:03:45;98597.19;;;15.44;72.47
5522;BME280;2783;48.730;8.006;2023-03-31T15:06:11;98603.81;;;15.51;73.33
5522;BME280;2783;48.730;8.006;2023-03-31T15:08:36;98605.84;;;15.47;72.82
5522;BME280;2783;48.730;8.006;2023-03-31T15:11:07;98626.34;;;15.36;71.82
5522;BME280;2783;48.730;8.006;2023-03-31T15:13:36;98629.22;;;15.09;75.01
5522;BME280;2783;48.730;8.006;2023-03-31T15:18:51;98640.84;;;14.97;76.40
5522;BME280;2783;48.730;8.006;2023-03-31T15:21:20;98644.47;;;14.96;75.91
5522;BME280;2783;48.730;8.006;2023-03-31T15:23:45;98620.31;;;14.85;72.45
5522;BME280;2783;48.730;8.006;2023-03-31T15:26:11;98631.22;;;14.82;69.63
5522;BME280;2783;48.730;8.006;2023-03-31T15:28:41;98637.44;;;14.70;67.25
5522;BME280;2783;48.730;8.006;2023-03-31T15:31:12;98616.50;;;14.64;66.67
5522;BME280;2783;48.730;8.006;2023-03-31T15:33:38;98587.84;;;14.41;63.41
5522;BME280;2783;48.730;8.006;2023-03-31T15:36:06;98562.16;;;14.26;67.76
5522;BME280;2783;48.730;8.006;2023-03-31T15:38:32;98574.00;;;13.97;62.93
5522;BME280;2783;48.730;8.006;2023-03-31T15:40:57;98595.94;;;14.02;63.98
5522;BME280;2783;48.730;8.006;2023-03-31T15:48:21;98600.38;;;13.89;66.84
5522;BME280;2783;48.730;8.006;2023-03-31T15:50:46;98608.63;;;13.86;69.50
5522;BME280;2783;48.730;8.006;2023-03-31T15:53:26;98620.69;;;13.79;72.03
5522;BME280;2783;48.730;8.006;2023-03-31T15:55:53;98621.75;;;13.76;74.22
5522;BME280;2783;48.730;8.006;2023-03-31T15:58:19;98623.97;;;13.70;75.17
5522;BME280;2783;48.730;8.006;2023-03-31T16:00:51;98634.44;;;13.60;75.92
5522;BME280;2783;48.730;8.006;2023-03-31T16:05:50;98645.13;;;13.60;75.61
5522;BME280;2783;48.730;8.006;2023-03-31T16:08:18;98657.22;;;13.39;76.61
5522;BME280;2783;48.730;8.006;2023-03-31T16:10:45;98651.44;;;13.33;77.50
5522;BME280;2783;48.730;8.006;2023-03-31T16:13:15;98651.19;;;13.09;78.41
5522;BME280;2783;48.730;8.006;2023-03-31T16:15:43;98652.25;;;12.92;78.72
5522;BME280;2783;48.730;8.006;2023-03-31T16:18:14;98650.25;;;12.96;80.65
5522;BME280;2783;48.730;8.006;2023-03-31T16:20:49;98647.47;;;12.83;81.00
5522;BME280;2783;48.730;8.006;2023-03-31T16:23:18;98649.31;;;12.83;82.74
5522;BME280;2783;48.730;8.006;2023-03-31T16:25:44;98635.88;;;12.70;84.11
5522;BME280;2783;48.730;8.006;2023-03-31T16:28:13;98629.38;;;12.60;84.33